Data for 10/10/2016

Time Sea-Level Adjusted Pressure Absolute Pressure Temperature Relative Humidity Dew Point   
(mb) (inHg) (mb) (inHg) (C) (F) (%) (C) (F)
00:05 1015 29.97 844 24.92 14 57.2 38 -0.1 31.8
00:10 1015 29.97 844 24.92 13.6 56.5 37 -0.7 30.7
00:15 1015 29.97 844 24.92 13.4 56.1 37 -0.9 30.5
00:20 1015 29.97 844 24.92 13.7 56.6 39 -0.1 31.9
00:25 1015 29.97 844 24.92 13.5 56.3 37 -0.9 30.4
00:30 1015 29.97 844 24.92 13.2 55.8 40 -0.2 31.7
00:35 1015 29.97 844 24.92 13 55.4 39 -0.4 31.3
00:40 1015 29.97 844 24.92 13 55.4 39 -0.7 30.8
00:45 1014 29.94 844 24.92 13.1 55.6 38 -0.7 30.7
00:50 1014 29.94 844 24.92 13.1 55.5 38 -0.8 30.5
00:55 1014 29.94 843 24.89 13.2 55.7 37 -1 30.2
01:00 1014 29.94 843 24.89 13.3 55.9 37 -1 30.1
01:05 1014 29.94 843 24.89 13.4 56 37 -0.9 30.4
01:10 1014 29.94 843 24.89 13.5 56.3 36 -1.4 29.6
01:15 1014 29.94 843 24.89 13.7 56.6 37 -0.9 30.5
01:20 1014 29.94 843 24.89 13.5 56.4 36 -1.2 29.8
01:25 1014 29.94 843 24.89 13.7 56.6 34 -1.7 28.9
01:30 1014 29.94 843 24.89 14 57.3 34 -1.7 29
01:35 1014 29.94 843 24.89 14.1 57.4 35 -1.1 30.1
01:40 1014 29.94 843 24.89 13.7 56.7 35 -1.3 29.7
01:45 1014 29.94 843 24.89 13.6 56.6 36 -1.2 29.8
01:50 1014 29.94 843 24.89 13.6 56.5 36 -0.9 30.3
01:55 1014 29.94 843 24.89 13.5 56.3 36 -1.3 29.7
02:00 1014 29.94 843 24.89 13.8 56.8 35 -1.5 29.3
02:05 1014 29.94 843 24.89 13.9 57 34 -1.6 29.1
02:10 1014 29.94 843 24.89 13.7 56.7 35 -1.3 29.7
02:15 1014 29.94 843 24.89 13.7 56.7 36 -1.2 29.9
02:20 1014 29.94 843 24.89 13.7 56.7 35 -1.4 29.5
02:25 1014 29.94 843 24.89 13.6 56.5 36 -1 30.2
02:30 1013 29.91 843 24.89 13.5 56.4 34 -1.8 28.7
02:35 1013 29.91 843 24.89 13.7 56.6 37 -0.7 30.8
02:40 1013 29.91 842 24.86 13.5 56.3 35 -1.6 29.1
02:45 1013 29.91 842 24.86 13.7 56.7 35 -1.4 29.5
02:50 1013 29.91 842 24.86 13.8 56.9 33 -2 28.4
02:55 1013 29.91 842 24.86 14 57.1 34 -1.8 28.8
03:00 1013 29.91 842 24.86 14 57.2 34 -1.6 29.1
03:05 1013 29.91 842 24.86 13.8 56.9 35 -1.2 29.8
03:10 1013 29.91 842 24.86 13.6 56.4 38 -0.6 31
03:15 1013 29.91 842 24.86 13.2 55.8 39 -0.2 31.6
03:20 1013 29.91 842 24.86 13.1 55.6 40 0 32.1
03:25 1013 29.91 842 24.86 12.9 55.2 41 0.2 32.4
03:30 1013 29.91 842 24.86 12.8 55 43 0.5 32.9
03:35 1013 29.91 842 24.86 12.6 54.7 43 0.5 33
03:40 1013 29.91 842 24.86 12.5 54.5 44 0.5 33
03:45 1013 29.91 842 24.86 12.4 54.4 44 0.6 33.1
03:50 1012 29.88 842 24.86 12.3 54.1 45 0.8 33.4
03:55 1012 29.88 842 24.86 12.3 54.2 44 0.4 32.7
04:00 1012 29.88 842 24.86 12.3 54.2 44 0.5 32.9
04:05 1012 29.88 842 24.86 12.2 53.9 45 0.6 33.1
04:10 1012 29.88 841 24.83 12.1 53.7 45 0.5 32.9
04:15 1012 29.88 842 24.86 12.1 53.7 45 0.6 33
04:20 1012 29.88 841 24.83 12 53.6 44 0.3 32.6
04:25 1012 29.88 841 24.83 12.1 53.8 45 0.4 32.8
04:30 1012 29.88 841 24.83 12 53.7 45 0.4 32.7
04:35 1012 29.88 841 24.83 12 53.6 44 0.2 32.4
04:40 1012 29.88 841 24.83 12 53.6 45 0.4 32.8
04:45 1012 29.88 841 24.83 12 53.5 45 0.4 32.7
04:50 1012 29.88 841 24.83 12 53.6 44 0.2 32.4
04:55 1012 29.88 841 24.83 12 53.5 44 0.3 32.5
05:00 1012 29.88 841 24.83 11.9 53.4 45 0.4 32.8
05:05 1012 29.88 841 24.83 11.7 53.1 46 0.5 33
05:10 1012 29.88 841 24.83 11.4 52.6 48 0.8 33.5
05:15 1012 29.88 841 24.83 11.3 52.3 47 0.5 32.9
05:20 1012 29.88 841 24.83 11.3 52.3 47 0.6 33
05:25 1012 29.88 841 24.83 11.4 52.5 46 0.4 32.7
05:30 1012 29.88 841 24.83 11.4 52.5 46 0.4 32.7
05:35 1012 29.88 841 24.83 11.4 52.5 47 0.4 32.8
05:40 1011 29.85 841 24.83 11.4 52.5 45 0 32.1
05:45 1011 29.85 841 24.83 11.6 52.8 45 0.1 32.3
05:50 1011 29.85 841 24.83 11.5 52.7 45 0.1 32.2
05:55 1011 29.85 841 24.83 11.4 52.6 46 0.2 32.4
06:00 1011 29.85 841 24.83 11.3 52.4 46 0.2 32.3
06:05 1011 29.85 841 24.83 11.3 52.3 47 0.4 32.7
06:10 1011 29.85 841 24.83 11.1 51.9 48 0.6 33.1
06:15 1011 29.85 841 24.83 10.9 51.7 47 0.2 32.4
06:20 1011 29.85 840 24.81 11.1 51.9 49 0.8 33.4
06:25 1011 29.85 840 24.81 10.8 51.4 49 0.5 32.9
06:30 1011 29.85 840 24.81 10.9 51.6 48 0.4 32.7
06:35 1011 29.85 840 24.81 10.8 51.5 48 0.4 32.7
06:40 1011 29.85 840 24.81 10.7 51.3 49 0.4 32.8
06:45 1011 29.85 840 24.81 10.9 51.5 47 0.1 32.3
06:50 1011 29.85 840 24.81 10.8 51.4 48 0.2 32.4
06:55 1011 29.85 840 24.81 10.8 51.4 48 0.2 32.4
07:00 1011 29.85 840 24.81 10.7 51.3 50 0.7 33.3
07:05 1011 29.85 840 24.81 10.7 51.3 50 0.7 33.3
07:10 1011 29.85 840 24.81 10.7 51.3 47 -0.1 31.9
07:15 1011 29.85 840 24.81 10.8 51.5 49 0.6 33
07:20 1011 29.85 840 24.81 10.6 51 50 0.6 33
07:25 1011 29.85 840 24.81 10.7 51.3 44 -0.9 30.4
07:30 1011 29.85 840 24.81 11.4 52.5 47 0.7 33.2
07:35 1011 29.85 840 24.81 11 51.8 48 0.5 32.9
07:40 1011 29.85 840 24.81 11.1 52 48 0.7 33.2
07:45 1011 29.85 840 24.81 10.9 51.5 48 0.2 32.4
07:50 1011 29.85 840 24.81 11 51.9 48 0.4 32.8
07:55 1011 29.85 840 24.81 11.2 52.2 43 -0.7 30.8
08:00 1011 29.85 840 24.81 11.7 53 43 -0.4 31.3
08:05 1011 29.85 840 24.81 12.6 54.7 33 -3.2 26.3
08:10 1011 29.85 840 24.81 13.7 56.6 40 0.5 32.9
08:15 1011 29.85 840 24.81 12.7 54.8 46 1.3 34.3
08:20 1011 29.85 840 24.81 12.2 53.9 43 -0.1 31.8
08:25 1011 29.85 840 24.81 12.6 54.6 43 0.5 33
08:30 1011 29.85 840 24.81 12.7 54.9 42 0.3 32.6
08:35 1011 29.85 840 24.81 13.1 55.5 42 0.7 33.2
08:40 1011 29.85 840 24.81 13.6 56.5 38 -0.4 31.3
08:45 1011 29.85 840 24.81 14.2 57.5 35 -0.9 30.3
08:50 1011 29.85 840 24.81 15 59 30 -2.2 28
08:55 1011 29.85 840 24.81 16.1 61.1 31 -0.8 30.5
09:00 1011 29.85 840 24.81 16.8 62.2 31 -0.2 31.6
09:05 1011 29.85 840 24.81 16.7 62.1 32 0.2 32.3
09:10 1011 29.85 841 24.83 16.6 61.8 34 0.6 33
09:15 1011 29.85 841 24.83 16 60.8 36 0.8 33.5
09:20 1011 29.85 841 24.83 15.9 60.7 33 -0.4 31.3
09:25 1011 29.85 841 24.83 15.6 60.1 36 0.7 33.3
09:30 1011 29.85 841 24.83 15.2 59.3 39 1.6 34.8
09:35 1012 29.88 841 24.83 14.2 57.6 43 1.9 35.5
09:40 1012 29.88 841 24.83 13.6 56.5 42 1 33.8
09:45 1012 29.88 841 24.83 13.2 55.7 43 0.9 33.6
09:50 1012 29.88 841 24.83 13.3 56 42 0.8 33.5
09:55 1012 29.88 841 24.83 13.5 56.2 41 0.7 33.3
10:00 1012 29.88 841 24.83 13.4 56.1 42 0.8 33.5
10:05 1012 29.88 841 24.83 12.9 55.1 42 0.4 32.7
10:10 1012 29.88 841 24.83 12.6 54.6 43 0.4 32.8
10:15 1012 29.88 841 24.83 12.6 54.6 42 0.1 32.2
10:20 1012 29.88 842 24.86 12.5 54.6 42 0.1 32.3
10:25 1012 29.88 841 24.83 12.7 54.8 42 0.1 32.2
10:30 1012 29.88 842 24.86 12.9 55.3 40 -0.1 31.8
10:35 1012 29.88 842 24.86 13.2 55.8 40 0 32.1
10:40 1012 29.88 842 24.86 13.5 56.3 40 0.1 32.2
10:45 1013 29.91 842 24.86 13.6 56.4 40 0.3 32.5
10:50 1013 29.91 842 24.86 13.3 56 40 0.1 32.1
10:55 1013 29.91 842 24.86 13.1 55.7 44 1.2 34.2
11:00 1013 29.91 842 24.86 13.2 55.7 44 1.3 34.4
11:05 1013 29.91 842 24.86 12.9 55.3 46 1.7 35
11:10 1013 29.91 842 24.86 12.7 54.9 46 1.4 34.5
11:15 1013 29.91 842 24.86 12.6 54.6 47 1.5 34.8
11:20 1013 29.91 842 24.86 12.8 55.1 46 1.4 34.6
11:25 1013 29.91 843 24.89 13 55.4 45 1.5 34.8
11:30 1014 29.94 843 24.89 12.5 54.6 49 2.2 35.9
11:35 1014 29.94 843 24.89 12.3 54.1 49 2 35.6
11:40 1014 29.94 843 24.89 12.1 53.8 48 1.6 34.9
11:45 1014 29.94 843 24.89 12.1 53.8 49 1.8 35.3
11:50 1014 29.94 843 24.89 12.1 53.8 49 1.9 35.3
11:55 1014 29.94 843 24.89 12.2 53.9 46 0.8 33.5
12:00 1014 29.94 843 24.89 12.1 53.7 46 1 33.8
12:05 1014 29.94 844 24.92 11.7 53.1 47 0.8 33.4
12:10 1014 29.94 844 24.92 11.2 52.2 49 1.1 34
12:15 1015 29.97 844 24.92 10.9 51.5 52 1.3 34.3
12:20 1014 29.94 844 24.92 10.7 51.3 51 1.1 34
12:25 1015 29.97 844 24.92 10.4 50.8 51 0.9 33.6
12:30 1015 29.97 844 24.92 10.1 50.2 51 0.5 32.8
12:35 1015 29.97 844 24.92 10.2 50.4 51 0.6 33
12:40 1015 29.97 844 24.92 10.3 50.6 51 0.6 33.1
12:45 1015 29.97 844 24.92 10.7 51.3 49 0.6 33.1
12:50 1015 29.97 844 24.92 10.7 51.2 50 0.6 33.1
12:55 1015 29.97 844 24.92 10.7 51.2 50 0.6 33.1
13:00 1015 29.97 844 24.92 10.8 51.4 49 0.6 33.2
13:05 1015 29.97 844 24.92 10.5 50.9 49 0.4 32.6
13:10 1015 29.97 844 24.92 10.6 51.2 49 0.3 32.5
13:15 1015 29.97 844 24.92 10.7 51.3 49 0.4 32.8
13:20 1015 29.97 844 24.92 11 51.7 48 0.4 32.7
13:25 1015 29.97 844 24.92 11.3 52.3 48 0.7 33.2
13:30 1015 29.97 844 24.92 11.2 52.2 49 1 33.8
13:35 1015 29.97 844 24.92 11.3 52.3 51 1.5 34.7
13:40 1015 29.97 844 24.92 11.3 52.4 50 1.5 34.7
13:45 1015 29.97 844 24.92 11.6 52.8 50 1.6 34.9
13:50 1015 29.97 844 24.92 11.7 53 50 1.7 35.1
13:55 1015 29.97 844 24.92 11.4 52.5 52 1.9 35.4
14:00 1015 29.97 844 24.92 11.4 52.4 53 2.1 35.8
14:05 1015 29.97 844 24.92 11.2 52.1 53 2 35.7
14:10 1015 29.97 845 24.95 11.2 52.2 55 2.5 36.4
14:15 1015 29.97 845 24.95 11.2 52.1 54 2.3 36.2
14:20 1015 29.97 845 24.95 11.4 52.6 54 2.5 36.6
14:25 1015 29.97 844 24.92 11.4 52.6 53 2.3 36.2
14:30 1015 29.97 844 24.92 11.3 52.4 54 2.4 36.3
14:35 1015 29.97 844 24.92 11.6 52.9 53 2.5 36.4
14:40 1015 29.97 844 24.92 11.7 53 52 2.2 36
14:45 1015 29.97 845 24.95 11.7 53 53 2.4 36.4
14:50 1015 29.97 845 24.95 11.4 52.5 52 2 35.6
14:55 1015 29.97 845 24.95 11.2 52.2 54 2.2 35.9
15:00 1015 29.97 845 24.95 10.9 51.6 55 2.2 35.9
15:05 1015 29.97 844 24.92 10.9 51.6 54 2.1 35.8
15:10 1015 29.97 844 24.92 10.7 51.3 55 2.1 35.8
15:15 1015 29.97 844 24.92 11 51.9 54 2.1 35.8
15:20 1015 29.97 844 24.92 11.3 52.3 55 2.5 36.5
15:25 1015 29.97 844 24.92 11.5 52.6 53 2.3 36.1
15:30 1015 29.97 844 24.92 11.2 52.2 55 2.5 36.5
15:35 1015 29.97 845 24.95 11 51.8 54 2.2 35.9
15:40 1015 29.97 845 24.95 10.8 51.4 54 1.9 35.4
15:45 1015 29.97 845 24.95 10.8 51.4 54 1.9 35.5
15:50 1015 29.97 845 24.95 11 51.7 55 2.4 36.3
15:55 1015 29.97 844 24.92 10.9 51.7 56 2.5 36.5
16:00 1015 29.97 845 24.95 10.9 51.6 55 2.3 36.1
16:05 1016 30 845 24.95 10.6 51 55 2 35.6
16:10 1016 30 845 24.95 10.3 50.6 57 2.3 36.1
16:15 1016 30 845 24.95 10.4 50.8 56 2 35.6
16:20 1016 30 845 24.95 10.5 50.8 57 2.2 36
16:25 1016 30 845 24.95 10.4 50.7 57 2.3 36.2
16:30 1016 30 845 24.95 10.1 50.2 61 3 37.5
16:35 1016 30 845 24.95 10 49.9 62 3.2 37.7
16:40 1016 30 845 24.95 9.9 49.8 60 2.6 36.7
16:45 1016 30 845 24.95 9.7 49.4 67 3.8 38.9
16:50 1016 30 845 24.95 9 48.3 70 3.8 38.9
16:55 1016 30 846 24.98 7.6 45.7 75 3.5 38.3
17:00 1016 30 846 24.98 7 44.7 79 3.6 38.4
17:05 1016 30 845 24.95 6.6 43.9 80 3.3 38
17:10 1016 30 845 24.95 6.1 43 81 3.1 37.6
17:15 1016 30 846 24.98 5.8 42.4 83 3.1 37.6
17:20 1016 30 846 24.98 5.7 42.3 84 3.2 37.7
17:25 1017 30.03 846 24.98 5.6 42.2 84 3.2 37.8
17:30 1017 30.03 846 24.98 5.6 42.1 83 2.9 37.2
17:35 1017 30.03 846 24.98 5.4 41.7 83 2.7 36.9
17:40 1017 30.03 846 24.98 5.2 41.4 84 2.8 37
17:45 1017 30.03 846 24.98 5 41.1 83 2.5 36.4
17:50 1017 30.03 846 24.98 4.8 40.7 84 2.4 36.4
17:55 1017 30.03 846 24.98 4.7 40.5 85 2.4 36.2
18:00 1017 30.03 846 24.98 4.7 40.4 85 2.4 36.2
18:05 1016 30 846 24.98 4.6 40.2 85 2.2 36
18:10 1017 30.03 846 24.98 4.4 39.9 84 1.9 35.4
18:15 1017 30.03 846 24.98 4.3 39.7 83 1.7 35.1
18:20 1017 30.03 846 24.98 4.1 39.4 83 1.5 34.7
18:25 1017 30.03 846 24.98 3.9 39.1 83 1.2 34.2
18:30 1017 30.03 846 24.98 3.7 38.6 83 1 33.8
18:35 1017 30.03 846 24.98 3.5 38.4 83 0.8 33.5
18:40 1017 30.03 846 24.98 3.4 38.1 82 0.7 33.2
18:45 1017 30.03 846 24.98 3.3 38 80 0.3 32.5
18:50 1017 30.03 846 24.98 3.3 37.9 80 0.1 32.2
18:55 1017 30.03 846 24.98 3.1 37.6 81 0.1 32.2
19:00 1017 30.03 846 24.98 3 37.4 80 -0.1 31.8
19:05 1017 30.03 846 24.98 2.9 37.2 81 -0.1 31.9
19:10 1016 30 846 24.98 2.7 36.9 81 -0.2 31.7
19:15 1017 30.03 846 24.98 2.6 36.7 82 -0.2 31.7
19:20 1017 30.03 846 24.98 2.6 36.6 81 -0.4 31.2
19:25 1017 30.03 846 24.98 2.6 36.7 81 -0.4 31.2
19:30 1017 30.03 847 25.01 2.6 36.8 80 -0.4 31.2
19:35 1017 30.03 847 25.01 2.7 36.8 80 -0.4 31.2
19:40 1018 30.06 847 25.01 2.7 36.8 79 -0.6 30.9
19:45 1018 30.06 847 25.01 2.7 36.9 77 -0.8 30.5
19:50 1018 30.06 847 25.01 2.7 36.8 78 -0.8 30.6
19:55 1018 30.06 847 25.01 2.5 36.6 79 -0.7 30.8
20:00 1018 30.06 847 25.01 2.3 36.1 82 -0.5 31
20:05 1018 30.06 847 25.01 2.1 35.7 84 -0.3 31.5
20:10 1018 30.06 848 25.04 1.7 35 85 -0.6 30.9
20:15 1018 30.06 847 25.01 1.4 34.6 87 -0.5 31
20:20 1018 30.06 847 25.01 1.3 34.3 87 -0.6 30.9
20:25 1018 30.06 847 25.01 1.3 34.4 84 -1 30.1
20:30 1018 30.06 847 25.01 1.3 34.4 83 -1.2 29.9
20:35 1018 30.06 847 25.01 1.3 34.3 84 -1.1 30.1
20:40 1018 30.06 847 25.01 1.3 34.3 85 -0.9 30.3
20:45 1018 30.06 847 25.01 1.3 34.4 84 -1.1 30.1
20:50 1018 30.06 848 25.04 1.3 34.3 84 -1 30.1
20:55 1018 30.06 848 25.04 1.3 34.3 84 -1 30.1
21:00 1019 30.09 848 25.04 1.2 34.2 83 -1.3 29.7
21:05 1018 30.06 848 25.04 1 33.9 82 -1.6 29.1
21:10 1018 30.06 847 25.01 0.7 33.3 83 -1.8 28.7
21:15 1018 30.06 848 25.04 0.6 33 85 -1.7 28.9
21:20 1019 30.09 848 25.04 0.6 33 86 -1.6 29.2
21:25 1019 30.09 848 25.04 0.5 32.9 86 -1.6 29.1
21:30 1019 30.09 848 25.04 0.6 33 85 -1.6 29.1
21:35 1018 30.06 848 25.04 0.6 33.1 84 -1.7 28.9
21:40 1018 30.06 848 25.04 0.6 33 83 -2 28.4
21:45 1019 30.09 848 25.04 0.5 32.9 84 -1.9 28.6
21:50 1019 30.09 848 25.04 0.5 32.9 85 -1.8 28.8
21:55 1019 30.09 848 25.04 0.4 32.8 84 -1.9 28.6
22:00 1019 30.09 848 25.04 0.1 32.2 84 -2.2 28.1
22:05 1019 30.09 848 25.04 -0 31.9 85 -2.3 27.9
22:10 1019 30.09 848 25.04 0.1 32.1 84 -2.4 27.7
22:15 1019 30.09 848 25.04 -0.1 31.8 84 -2.6 27.3
22:20 1018 30.06 848 25.04 -0.1 31.8 84 -2.5 27.5
22:25 1018 30.06 847 25.01 -0.1 31.7 84 -2.5 27.5
22:30 1018 30.06 847 25.01 -0.2 31.7 86 -2.3 27.9
22:35 1018 30.06 847 25.01 -0.1 31.9 85 -2.3 27.8
22:40 1018 30.06 847 25.01 -0.1 31.9 85 -2.3 27.8
22:45 1018 30.06 848 25.04 -0 32 85 -2.3 27.8
22:50 1019 30.09 848 25.04 -0 31.9 85 -2.2 28
22:55 1019 30.09 848 25.04 -0.2 31.6 86 -2.4 27.8
23:00 1019 30.09 848 25.04 -0.3 31.4 86 -2.4 27.7
23:05 1018 30.06 848 25.04 -0.4 31.3 86 -2.5 27.5
23:10 1018 30.06 848 25.04 -0.4 31.3 86 -2.5 27.5
23:15 1018 30.06 848 25.04 -0.3 31.5 85 -2.6 27.4
23:20 1018 30.06 848 25.04 -0.1 31.8 83 -2.7 27.1
23:25 1018 30.06 847 25.01 -0.1 31.8 81 -3 26.6
23:30 1018 30.06 847 25.01 -0 32 82 -2.7 27.2
23:35 1018 30.06 848 25.04 -0 31.9 85 -2.3 27.8
23:40 1018 30.06 848 25.04 -0.1 31.9 86 -2.2 28.1
23:45 1018 30.06 848 25.04 -0.1 31.8 87 -2.1 28.3
23:50 1018 30.06 848 25.04 -0.2 31.6 88 -2 28.3
23:55 1019 30.09 848 25.04 -0.5 31.1 88 -2.2 28
24:00 1019 30.09 848 25.04 -0.9 30.4 89 -2.5 27.4